sensor_id;sensor_type;location;lat;lon;timestamp;P1;durP1;ratioP1;P2;durP2;ratioP2
56511;SDS011;42408;53.238;5.686;2023-03-01T00:01:52;48.93;;;11.43;;
56511;SDS011;42408;53.238;5.686;2023-03-01T00:04:18;73.63;;;15.07;;
56511;SDS011;42408;53.238;5.686;2023-03-01T00:06:44;26.13;;;12.00;;
56511;SDS011;42408;53.238;5.686;2023-03-01T00:09:12;20.80;;;12.52;;
56511;SDS011;42408;53.238;5.686;2023-03-01T00:11:40;16.67;;;9.85;;
56511;SDS011;42408;53.238;5.686;2023-03-01T00:14:06;14.10;;;9.30;;
56511;SDS011;42408;53.238;5.686;2023-03-01T00:16:33;11.70;;;8.23;;
56511;SDS011;42408;53.238;5.686;2023-03-01T00:19:00;19.02;;;10.25;;
56511;SDS011;42408;53.238;5.686;2023-03-01T00:21:27;16.63;;;9.30;;
56511;SDS011;42408;53.238;5.686;2023-03-01T00:23:53;49.30;;;10.77;;
56511;SDS011;42408;53.238;5.686;2023-03-01T00:26:20;93.40;;;11.82;;
56511;SDS011;42408;53.238;5.686;2023-03-01T00:28:47;79.20;;;12.00;;
56511;SDS011;42408;53.238;5.686;2023-03-01T00:31:15;45.10;;;10.10;;
56511;SDS011;42408;53.238;5.686;2023-03-01T00:33:46;141.75;;;13.98;;
56511;SDS011;42408;53.238;5.686;2023-03-01T00:36:12;96.33;;;11.53;;
56511;SDS011;42408;53.238;5.686;2023-03-01T00:38:41;92.90;;;10.98;;
56511;SDS011;42408;53.238;5.686;2023-03-01T00:41:12;96.65;;;10.77;;
56511;SDS011;42408;53.238;5.686;2023-03-01T00:43:39;56.00;;;10.27;;
56511;SDS011;42408;53.238;5.686;2023-03-01T00:46:10;120.38;;;12.65;;
56511;SDS011;42408;53.238;5.686;2023-03-01T00:48:37;28.38;;;8.18;;
56511;SDS011;42408;53.238;5.686;2023-03-01T00:53:43;10.55;;;5.82;;
56511;SDS011;42408;53.238;5.686;2023-03-01T00:56:10;23.92;;;7.32;;
56511;SDS011;42408;53.238;5.686;2023-03-01T00:58:37;39.03;;;9.02;;
56511;SDS011;42408;53.238;5.686;2023-03-01T01:03:43;6.55;;;5.00;;
56511;SDS011;42408;53.238;5.686;2023-03-01T01:06:23;25.52;;;7.18;;
56511;SDS011;42408;53.238;5.686;2023-03-01T01:11:20;8.45;;;5.60;;
56511;SDS011;42408;53.238;5.686;2023-03-01T01:13:48;48.35;;;9.73;;
56511;SDS011;42408;53.238;5.686;2023-03-01T01:16:14;7.85;;;6.03;;
56511;SDS011;42408;53.238;5.686;2023-03-01T01:21:07;27.65;;;8.77;;
56511;SDS011;42408;53.238;5.686;2023-03-01T01:23:35;9.32;;;7.07;;
56511;SDS011;42408;53.238;5.686;2023-03-01T01:28:31;12.80;;;6.57;;
56511;SDS011;42408;53.238;5.686;2023-03-01T01:30:57;60.57;;;10.00;;
56511;SDS011;42408;53.238;5.686;2023-03-01T01:33:22;69.63;;;10.40;;
56511;SDS011;42408;53.238;5.686;2023-03-01T01:35:48;18.77;;;8.50;;
56511;SDS011;42408;53.238;5.686;2023-03-01T01:38:13;9.70;;;6.73;;
56511;SDS011;42408;53.238;5.686;2023-03-01T01:40:43;9.57;;;7.67;;
56511;SDS011;42408;53.238;5.686;2023-03-01T01:43:16;11.30;;;8.05;;
56511;SDS011;42408;53.238;5.686;2023-03-01T01:45:45;11.43;;;9.18;;
56511;SDS011;42408;53.238;5.686;2023-03-01T01:48:12;14.50;;;9.43;;
56511;SDS011;42408;53.238;5.686;2023-03-01T01:50:43;30.65;;;10.27;;
56511;SDS011;42408;53.238;5.686;2023-03-01T01:53:11;16.27;;;10.38;;
56511;SDS011;42408;53.238;5.686;2023-03-01T01:55:41;110.35;;;19.52;;
56511;SDS011;42408;53.238;5.686;2023-03-01T01:58:11;38.95;;;13.63;;
56511;SDS011;42408;53.238;5.686;2023-03-01T02:00:40;32.38;;;13.57;;
56511;SDS011;42408;53.238;5.686;2023-03-01T02:03:08;14.43;;;9.87;;
56511;SDS011;42408;53.238;5.686;2023-03-01T02:08:13;14.40;;;10.07;;
56511;SDS011;42408;53.238;5.686;2023-03-01T02:10:41;15.40;;;9.93;;
56511;SDS011;42408;53.238;5.686;2023-03-01T02:13:07;27.02;;;12.52;;
56511;SDS011;42408;53.238;5.686;2023-03-01T02:15:34;15.55;;;10.82;;
56511;SDS011;42408;53.238;5.686;2023-03-01T02:18:01;15.55;;;11.13;;
56511;SDS011;42408;53.238;5.686;2023-03-01T02:23:00;17.80;;;9.35;;
56511;SDS011;42408;53.238;5.686;2023-03-01T02:28:10;22.90;;;9.70;;
56511;SDS011;42408;53.238;5.686;2023-03-01T02:30:40;27.23;;;9.35;;
56511;SDS011;42408;53.238;5.686;2023-03-01T02:33:27;61.13;;;13.43;;
56511;SDS011;42408;53.238;5.686;2023-03-01T02:35:58;23.05;;;9.55;;
56511;SDS011;42408;53.238;5.686;2023-03-01T02:38:25;44.30;;;10.82;;
56511;SDS011;42408;53.238;5.686;2023-03-01T02:40:51;58.55;;;13.25;;
56511;SDS011;42408;53.238;5.686;2023-03-01T02:43:19;32.08;;;10.70;;
56511;SDS011;42408;53.238;5.686;2023-03-01T02:45:49;145.48;;;18.48;;
56511;SDS011;42408;53.238;5.686;2023-03-01T02:48:16;43.42;;;12.52;;
56511;SDS011;42408;53.238;5.686;2023-03-01T02:53:35;83.15;;;14.18;;
56511;SDS011;42408;53.238;5.686;2023-03-01T02:56:04;162.68;;;19.50;;
56511;SDS011;42408;53.238;5.686;2023-03-01T02:58:30;57.60;;;13.30;;
56511;SDS011;42408;53.238;5.686;2023-03-01T03:00:56;64.83;;;15.23;;
56511;SDS011;42408;53.238;5.686;2023-03-01T03:03:22;135.90;;;17.17;;
56511;SDS011;42408;53.238;5.686;2023-03-01T03:05:47;129.73;;;17.57;;
56511;SDS011;42408;53.238;5.686;2023-03-01T03:08:13;274.87;;;22.77;;
56511;SDS011;42408;53.238;5.686;2023-03-01T03:10:41;105.57;;;16.42;;
56511;SDS011;42408;53.238;5.686;2023-03-01T03:13:11;222.82;;;20.63;;
56511;SDS011;42408;53.238;5.686;2023-03-01T03:15:39;183.68;;;20.58;;
56511;SDS011;42408;53.238;5.686;2023-03-01T03:20:33;327.45;;;28.02;;
56511;SDS011;42408;53.238;5.686;2023-03-01T03:23:01;285.75;;;25.77;;
56511;SDS011;42408;53.238;5.686;2023-03-01T03:25:27;229.07;;;23.53;;
56511;SDS011;42408;53.238;5.686;2023-03-01T03:27:54;200.63;;;21.05;;
56511;SDS011;42408;53.238;5.686;2023-03-01T03:30:25;190.85;;;20.98;;
56511;SDS011;42408;53.238;5.686;2023-03-01T03:32:55;22.25;;;10.35;;
56511;SDS011;42408;53.238;5.686;2023-03-01T03:35:22;60.33;;;13.80;;
56511;SDS011;42408;53.238;5.686;2023-03-01T03:37:56;86.38;;;15.75;;
56511;SDS011;42408;53.238;5.686;2023-03-01T03:43:03;29.92;;;11.68;;
56511;SDS011;42408;53.238;5.686;2023-03-01T03:45:30;63.67;;;14.32;;
56511;SDS011;42408;53.238;5.686;2023-03-01T03:47:58;76.38;;;16.10;;
56511;SDS011;42408;53.238;5.686;2023-03-01T03:50:25;155.52;;;20.02;;
56511;SDS011;42408;53.238;5.686;2023-03-01T03:52:51;49.90;;;12.83;;
56511;SDS011;42408;53.238;5.686;2023-03-01T03:55:16;80.10;;;15.67;;
56511;SDS011;42408;53.238;5.686;2023-03-01T03:57:44;81.35;;;16.10;;
56511;SDS011;42408;53.238;5.686;2023-03-01T04:00:17;39.20;;;13.32;;
56511;SDS011;42408;53.238;5.686;2023-03-01T04:02:45;40.72;;;13.75;;
56511;SDS011;42408;53.238;5.686;2023-03-01T04:05:12;65.35;;;16.17;;
56511;SDS011;42408;53.238;5.686;2023-03-01T04:07:40;46.30;;;16.63;;
56511;SDS011;42408;53.238;5.686;2023-03-01T04:10:09;75.07;;;16.80;;
56511;SDS011;42408;53.238;5.686;2023-03-01T04:12:42;165.55;;;19.48;;
56511;SDS011;42408;53.238;5.686;2023-03-01T04:15:08;177.40;;;21.50;;
56511;SDS011;42408;53.238;5.686;2023-03-01T04:17:44;121.88;;;18.27;;
56511;SDS011;42408;53.238;5.686;2023-03-01T04:20:15;223.38;;;21.83;;
56511;SDS011;42408;53.238;5.686;2023-03-01T04:22:43;149.82;;;20.13;;
56511;SDS011;42408;53.238;5.686;2023-03-01T04:25:12;253.50;;;24.77;;
56511;SDS011;42408;53.238;5.686;2023-03-01T04:27:39;143.75;;;17.10;;
56511;SDS011;42408;53.238;5.686;2023-03-01T04:30:06;104.35;;;17.08;;
56511;SDS011;42408;53.238;5.686;2023-03-01T04:32:33;51.20;;;13.52;;
56511;SDS011;42408;53.238;5.686;2023-03-01T04:34:59;67.50;;;14.90;;
56511;SDS011;42408;53.238;5.686;2023-03-01T04:37:25;64.37;;;16.03;;
56511;SDS011;42408;53.238;5.686;2023-03-01T04:39:51;175.15;;;19.98;;
56511;SDS011;42408;53.238;5.686;2023-03-01T04:42:17;38.70;;;13.53;;
56511;SDS011;42408;53.238;5.686;2023-03-01T04:44:44;65.05;;;13.48;;
56511;SDS011;42408;53.238;5.686;2023-03-01T04:47:10;34.22;;;12.85;;
56511;SDS011;42408;53.238;5.686;2023-03-01T04:49:36;25.23;;;11.68;;
56511;SDS011;42408;53.238;5.686;2023-03-01T04:52:02;18.63;;;12.87;;
56511;SDS011;42408;53.238;5.686;2023-03-01T04:56:59;73.53;;;16.92;;
56511;SDS011;42408;53.238;5.686;2023-03-01T04:59:25;46.33;;;16.13;;
56511;SDS011;42408;53.238;5.686;2023-03-01T05:01:52;47.20;;;14.98;;
56511;SDS011;42408;53.238;5.686;2023-03-01T05:04:20;25.95;;;14.20;;
56511;SDS011;42408;53.238;5.686;2023-03-01T05:06:49;23.45;;;14.27;;
56511;SDS011;42408;53.238;5.686;2023-03-01T05:09:14;19.73;;;12.83;;
56511;SDS011;42408;53.238;5.686;2023-03-01T05:11:41;180.32;;;21.80;;
56511;SDS011;42408;53.238;5.686;2023-03-01T05:14:07;63.63;;;15.93;;
56511;SDS011;42408;53.238;5.686;2023-03-01T05:16:34;81.35;;;16.23;;
56511;SDS011;42408;53.238;5.686;2023-03-01T05:21:36;248.05;;;23.95;;
56511;SDS011;42408;53.238;5.686;2023-03-01T05:24:23;139.75;;;19.17;;
56511;SDS011;42408;53.238;5.686;2023-03-01T05:26:49;111.95;;;19.27;;
56511;SDS011;42408;53.238;5.686;2023-03-01T05:29:18;78.20;;;16.70;;
56511;SDS011;42408;53.238;5.686;2023-03-01T05:31:50;107.15;;;17.98;;
56511;SDS011;42408;53.238;5.686;2023-03-01T05:34:24;76.82;;;16.20;;
56511;SDS011;42408;53.238;5.686;2023-03-01T05:36:51;62.78;;;15.68;;
56511;SDS011;42408;53.238;5.686;2023-03-01T05:39:19;49.42;;;16.60;;
56511;SDS011;42408;53.238;5.686;2023-03-01T05:41:51;73.03;;;17.52;;
56511;SDS011;42408;53.238;5.686;2023-03-01T05:44:17;75.40;;;17.83;;
56511;SDS011;42408;53.238;5.686;2023-03-01T05:46:43;50.90;;;16.40;;
56511;SDS011;42408;53.238;5.686;2023-03-01T05:49:10;32.72;;;14.00;;
56511;SDS011;42408;53.238;5.686;2023-03-01T05:51:36;47.03;;;15.60;;
56511;SDS011;42408;53.238;5.686;2023-03-01T05:54:02;95.17;;;18.17;;
56511;SDS011;42408;53.238;5.686;2023-03-01T05:56:27;51.77;;;16.63;;
56511;SDS011;42408;53.238;5.686;2023-03-01T05:58:54;66.90;;;18.33;;
56511;SDS011;42408;53.238;5.686;2023-03-01T06:01:19;49.97;;;15.03;;
56511;SDS011;42408;53.238;5.686;2023-03-01T06:03:45;79.23;;;15.83;;
56511;SDS011;42408;53.238;5.686;2023-03-01T06:06:11;89.57;;;17.57;;
56511;SDS011;42408;53.238;5.686;2023-03-01T06:08:37;32.90;;;14.03;;
56511;SDS011;42408;53.238;5.686;2023-03-01T06:11:02;23.03;;;13.00;;
56511;SDS011;42408;53.238;5.686;2023-03-01T06:13:28;18.53;;;12.50;;
56511;SDS011;42408;53.238;5.686;2023-03-01T06:15:54;25.40;;;13.77;;
56511;SDS011;42408;53.238;5.686;2023-03-01T06:18:21;30.53;;;13.17;;
56511;SDS011;42408;53.238;5.686;2023-03-01T06:20:52;31.48;;;14.18;;
56511;SDS011;42408;53.238;5.686;2023-03-01T06:23:21;20.67;;;13.57;;
56511;SDS011;42408;53.238;5.686;2023-03-01T06:25:47;20.65;;;13.48;;
56511;SDS011;42408;53.238;5.686;2023-03-01T06:28:13;18.63;;;12.53;;
56511;SDS011;42408;53.238;5.686;2023-03-01T06:30:39;21.07;;;13.67;;
56511;SDS011;42408;53.238;5.686;2023-03-01T06:33:04;16.40;;;11.87;;
56511;SDS011;42408;53.238;5.686;2023-03-01T06:35:30;16.23;;;12.47;;
56511;SDS011;42408;53.238;5.686;2023-03-01T06:37:57;16.15;;;11.82;;
56511;SDS011;42408;53.238;5.686;2023-03-01T06:40:24;15.93;;;11.45;;
56511;SDS011;42408;53.238;5.686;2023-03-01T06:42:50;18.73;;;13.00;;
56511;SDS011;42408;53.238;5.686;2023-03-01T06:45:17;21.63;;;14.35;;
56511;SDS011;42408;53.238;5.686;2023-03-01T06:47:44;38.22;;;14.35;;
56511;SDS011;42408;53.238;5.686;2023-03-01T06:50:10;17.63;;;12.73;;
56511;SDS011;42408;53.238;5.686;2023-03-01T06:52:36;19.60;;;12.40;;
56511;SDS011;42408;53.238;5.686;2023-03-01T06:55:02;15.70;;;12.63;;
56511;SDS011;42408;53.238;5.686;2023-03-01T06:57:29;25.23;;;19.70;;
56511;SDS011;42408;53.238;5.686;2023-03-01T06:59:54;23.20;;;17.10;;
56511;SDS011;42408;53.238;5.686;2023-03-01T07:02:20;20.57;;;15.60;;
56511;SDS011;42408;53.238;5.686;2023-03-01T07:04:46;19.40;;;13.83;;
56511;SDS011;42408;53.238;5.686;2023-03-01T07:07:13;28.00;;;14.52;;
56511;SDS011;42408;53.238;5.686;2023-03-01T07:09:39;21.93;;;16.20;;
56511;SDS011;42408;53.238;5.686;2023-03-01T07:12:04;19.53;;;13.37;;
56511;SDS011;42408;53.238;5.686;2023-03-01T07:14:30;24.20;;;17.63;;
56511;SDS011;42408;53.238;5.686;2023-03-01T07:16:56;22.23;;;16.27;;
56511;SDS011;42408;53.238;5.686;2023-03-01T07:19:22;21.50;;;15.73;;
56511;SDS011;42408;53.238;5.686;2023-03-01T07:21:48;19.42;;;13.20;;
56511;SDS011;42408;53.238;5.686;2023-03-01T07:24:14;19.80;;;12.87;;
56511;SDS011;42408;53.238;5.686;2023-03-01T07:26:39;16.73;;;11.77;;
56511;SDS011;42408;53.238;5.686;2023-03-01T07:29:06;16.67;;;10.97;;
56511;SDS011;42408;53.238;5.686;2023-03-01T07:31:32;13.27;;;10.80;;
56511;SDS011;42408;53.238;5.686;2023-03-01T07:33:58;15.83;;;11.17;;
56511;SDS011;42408;53.238;5.686;2023-03-01T07:36:24;17.03;;;11.57;;
56511;SDS011;42408;53.238;5.686;2023-03-01T07:38:50;15.77;;;11.05;;
56511;SDS011;42408;53.238;5.686;2023-03-01T07:41:16;13.60;;;9.52;;
56511;SDS011;42408;53.238;5.686;2023-03-01T07:43:42;12.40;;;9.38;;
56511;SDS011;42408;53.238;5.686;2023-03-01T07:46:08;13.30;;;9.57;;
56511;SDS011;42408;53.238;5.686;2023-03-01T07:48:34;15.30;;;10.13;;
56511;SDS011;42408;53.238;5.686;2023-03-01T07:51:00;12.53;;;9.43;;
56511;SDS011;42408;53.238;5.686;2023-03-01T07:53:27;13.75;;;9.80;;
56511;SDS011;42408;53.238;5.686;2023-03-01T07:56:12;15.07;;;10.60;;
56511;SDS011;42408;53.238;5.686;2023-03-01T07:58:40;13.55;;;10.70;;
56511;SDS011;42408;53.238;5.686;2023-03-01T08:01:09;17.30;;;12.93;;
56511;SDS011;42408;53.238;5.686;2023-03-01T08:03:37;15.90;;;11.30;;
56511;SDS011;42408;53.238;5.686;2023-03-01T08:06:03;21.30;;;13.30;;
56511;SDS011;42408;53.238;5.686;2023-03-01T08:08:31;20.45;;;13.63;;
56511;SDS011;42408;53.238;5.686;2023-03-01T08:10:58;21.40;;;14.15;;
56511;SDS011;42408;53.238;5.686;2023-03-01T08:15:49;18.05;;;12.60;;
56511;SDS011;42408;53.238;5.686;2023-03-01T08:18:16;19.20;;;13.90;;
56511;SDS011;42408;53.238;5.686;2023-03-01T08:20:42;18.45;;;12.82;;
56511;SDS011;42408;53.238;5.686;2023-03-01T08:23:08;22.30;;;15.10;;
56511;SDS011;42408;53.238;5.686;2023-03-01T08:25:33;19.83;;;14.23;;
56511;SDS011;42408;53.238;5.686;2023-03-01T08:27:59;20.43;;;14.50;;
56511;SDS011;42408;53.238;5.686;2023-03-01T08:30:25;24.93;;;15.90;;
56511;SDS011;42408;53.238;5.686;2023-03-01T08:32:51;20.17;;;13.77;;
56511;SDS011;42408;53.238;5.686;2023-03-01T08:35:16;22.03;;;15.40;;
56511;SDS011;42408;53.238;5.686;2023-03-01T08:37:42;18.23;;;13.37;;
56511;SDS011;42408;53.238;5.686;2023-03-01T08:40:08;18.77;;;14.10;;
56511;SDS011;42408;53.238;5.686;2023-03-01T08:42:35;20.90;;;14.57;;
56511;SDS011;42408;53.238;5.686;2023-03-01T08:45:02;19.85;;;14.20;;
56511;SDS011;42408;53.238;5.686;2023-03-01T08:49:53;21.52;;;15.30;;
56511;SDS011;42408;53.238;5.686;2023-03-01T08:52:20;21.63;;;15.50;;
56511;SDS011;42408;53.238;5.686;2023-03-01T08:54:47;21.83;;;15.30;;
56511;SDS011;42408;53.238;5.686;2023-03-01T08:57:13;18.02;;;14.32;;
56511;SDS011;42408;53.238;5.686;2023-03-01T08:59:38;20.60;;;15.07;;
56511;SDS011;42408;53.238;5.686;2023-03-01T09:02:05;19.60;;;14.37;;
56511;SDS011;42408;53.238;5.686;2023-03-01T09:04:35;21.33;;;15.13;;
56511;SDS011;42408;53.238;5.686;2023-03-01T09:07:00;20.93;;;15.10;;
56511;SDS011;42408;53.238;5.686;2023-03-01T09:09:26;20.17;;;14.90;;
56511;SDS011;42408;53.238;5.686;2023-03-01T09:11:52;19.90;;;14.07;;
56511;SDS011;42408;53.238;5.686;2023-03-01T09:14:17;20.83;;;14.60;;
56511;SDS011;42408;53.238;5.686;2023-03-01T09:16:43;21.60;;;15.07;;
56511;SDS011;42408;53.238;5.686;2023-03-01T09:19:10;19.88;;;15.32;;
56511;SDS011;42408;53.238;5.686;2023-03-01T09:21:36;20.05;;;14.70;;
56511;SDS011;42408;53.238;5.686;2023-03-01T09:24:02;22.67;;;15.55;;
56511;SDS011;42408;53.238;5.686;2023-03-01T09:26:28;21.88;;;15.70;;
56511;SDS011;42408;53.238;5.686;2023-03-01T09:28:55;22.30;;;15.40;;
56511;SDS011;42408;53.238;5.686;2023-03-01T09:31:22;22.30;;;15.82;;
56511;SDS011;42408;53.238;5.686;2023-03-01T09:33:50;24.05;;;16.85;;
56511;SDS011;42408;53.238;5.686;2023-03-01T09:36:18;22.77;;;16.15;;
56511;SDS011;42408;53.238;5.686;2023-03-01T09:38:45;22.63;;;15.25;;
56511;SDS011;42408;53.238;5.686;2023-03-01T09:46:48;21.35;;;15.57;;
56511;SDS011;42408;53.238;5.686;2023-03-01T09:49:18;20.60;;;15.20;;
56511;SDS011;42408;53.238;5.686;2023-03-01T09:51:53;22.75;;;16.90;;
56511;SDS011;42408;53.238;5.686;2023-03-01T09:54:22;21.20;;;15.75;;
56511;SDS011;42408;53.238;5.686;2023-03-01T09:59:41;21.65;;;15.98;;
56511;SDS011;42408;53.238;5.686;2023-03-01T10:10:42;18.60;;;14.02;;
56511;SDS011;42408;53.238;5.686;2023-03-01T10:15:50;20.33;;;15.98;;
56511;SDS011;42408;53.238;5.686;2023-03-01T10:18:23;18.10;;;14.27;;
56511;SDS011;42408;53.238;5.686;2023-03-01T10:20:57;22.83;;;15.35;;
56511;SDS011;42408;53.238;5.686;2023-03-01T10:23:32;19.17;;;15.53;;
56511;SDS011;42408;53.238;5.686;2023-03-01T10:26:09;20.25;;;13.68;;
56511;SDS011;42408;53.238;5.686;2023-03-01T10:31:30;20.63;;;14.07;;
56511;SDS011;42408;53.238;5.686;2023-03-01T10:36:43;19.85;;;15.05;;
56511;SDS011;42408;53.238;5.686;2023-03-01T10:39:19;17.70;;;13.18;;
56511;SDS011;42408;53.238;5.686;2023-03-01T10:44:36;19.23;;;13.60;;
56511;SDS011;42408;53.238;5.686;2023-03-01T10:47:13;15.93;;;12.82;;
56511;SDS011;42408;53.238;5.686;2023-03-01T10:52:26;16.63;;;12.10;;
56511;SDS011;42408;53.238;5.686;2023-03-01T10:55:02;14.63;;;12.00;;
56511;SDS011;42408;53.238;5.686;2023-03-01T10:57:45;13.98;;;11.25;;
56511;SDS011;42408;53.238;5.686;2023-03-01T11:02:46;15.05;;;11.98;;
56511;SDS011;42408;53.238;5.686;2023-03-01T11:05:17;14.80;;;12.18;;
56511;SDS011;42408;53.238;5.686;2023-03-01T11:07:53;15.57;;;12.50;;
56511;SDS011;42408;53.238;5.686;2023-03-01T11:10:26;15.63;;;11.70;;
56511;SDS011;42408;53.238;5.686;2023-03-01T11:12:53;16.73;;;12.48;;
56511;SDS011;42408;53.238;5.686;2023-03-01T11:15:31;15.02;;;11.80;;
56511;SDS011;42408;53.238;5.686;2023-03-01T11:17:57;16.03;;;12.50;;
56511;SDS011;42408;53.238;5.686;2023-03-01T11:20:24;12.88;;;10.23;;
56511;SDS011;42408;53.238;5.686;2023-03-01T11:23:02;14.60;;;10.80;;
56511;SDS011;42408;53.238;5.686;2023-03-01T11:25:39;14.60;;;10.77;;
56511;SDS011;42408;53.238;5.686;2023-03-01T11:28:10;16.20;;;11.50;;
56511;SDS011;42408;53.238;5.686;2023-03-01T11:30:40;12.35;;;9.77;;
56511;SDS011;42408;53.238;5.686;2023-03-01T11:38:34;13.70;;;11.27;;
56511;SDS011;42408;53.238;5.686;2023-03-01T11:41:04;14.15;;;11.02;;
56511;SDS011;42408;53.238;5.686;2023-03-01T11:43:33;14.95;;;11.07;;
56511;SDS011;42408;53.238;5.686;2023-03-01T11:46:08;13.05;;;10.48;;
56511;SDS011;42408;53.238;5.686;2023-03-01T11:49:17;11.50;;;9.98;;
56511;SDS011;42408;53.238;5.686;2023-03-01T12:06:12;11.70;;;9.40;;
56511;SDS011;42408;53.238;5.686;2023-03-01T12:08:57;14.88;;;11.23;;
56511;SDS011;42408;53.238;5.686;2023-03-01T12:14:30;17.08;;;12.05;;
56511;SDS011;42408;53.238;5.686;2023-03-01T12:25:16;16.00;;;11.88;;
56511;SDS011;42408;53.238;5.686;2023-03-01T12:30:35;16.55;;;11.50;;
56511;SDS011;42408;53.238;5.686;2023-03-01T12:38:50;14.95;;;10.93;;
56511;SDS011;42408;53.238;5.686;2023-03-01T12:49:26;14.60;;;11.88;;
56511;SDS011;42408;53.238;5.686;2023-03-01T12:55:08;16.73;;;13.02;;
56511;SDS011;42408;53.238;5.686;2023-03-01T13:00:30;17.38;;;14.20;;
56511;SDS011;42408;53.238;5.686;2023-03-01T13:03:05;18.77;;;13.43;;
56511;SDS011;42408;53.238;5.686;2023-03-01T13:13:27;18.58;;;13.88;;
56511;SDS011;42408;53.238;5.686;2023-03-01T13:15:53;19.42;;;14.98;;
56511;SDS011;42408;53.238;5.686;2023-03-01T13:20:49;17.15;;;13.85;;
56511;SDS011;42408;53.238;5.686;2023-03-01T13:31:00;19.23;;;13.02;;
56511;SDS011;42408;53.238;5.686;2023-03-01T13:35:53;15.53;;;12.53;;
56511;SDS011;42408;53.238;5.686;2023-03-01T13:42:25;18.17;;;12.98;;
56511;SDS011;42408;53.238;5.686;2023-03-01T13:44:20;16.42;;;12.50;;
56511;SDS011;42408;53.238;5.686;2023-03-01T13:46:51;15.13;;;12.20;;
56511;SDS011;42408;53.238;5.686;2023-03-01T13:50:22;18.67;;;12.82;;
56511;SDS011;42408;53.238;5.686;2023-03-01T13:55:00;16.17;;;13.23;;
56511;SDS011;42408;53.238;5.686;2023-03-01T13:57:33;17.15;;;13.65;;
56511;SDS011;42408;53.238;5.686;2023-03-01T14:00:00;16.67;;;12.82;;
56511;SDS011;42408;53.238;5.686;2023-03-01T14:02:27;18.20;;;13.73;;
56511;SDS011;42408;53.238;5.686;2023-03-01T14:04:57;21.47;;;14.20;;
56511;SDS011;42408;53.238;5.686;2023-03-01T14:07:24;16.60;;;11.65;;
56511;SDS011;42408;53.238;5.686;2023-03-01T14:09:54;18.17;;;13.23;;
56511;SDS011;42408;53.238;5.686;2023-03-01T14:15:22;17.58;;;12.50;;
56511;SDS011;42408;53.238;5.686;2023-03-01T14:20:30;18.23;;;12.83;;
56511;SDS011;42408;53.238;5.686;2023-03-01T14:23:01;17.65;;;12.55;;
56511;SDS011;42408;53.238;5.686;2023-03-01T14:25:34;17.17;;;11.98;;
56511;SDS011;42408;53.238;5.686;2023-03-01T14:31:02;16.83;;;12.82;;
56511;SDS011;42408;53.238;5.686;2023-03-01T14:33:54;16.23;;;12.20;;
56511;SDS011;42408;53.238;5.686;2023-03-01T14:36:25;15.63;;;11.77;;
56511;SDS011;42408;53.238;5.686;2023-03-01T14:38:53;16.48;;;12.23;;
56511;SDS011;42408;53.238;5.686;2023-03-01T14:41:22;16.38;;;12.05;;
56511;SDS011;42408;53.238;5.686;2023-03-01T14:43:51;16.10;;;11.63;;
56511;SDS011;42408;53.238;5.686;2023-03-01T14:46:29;16.33;;;12.50;;
56511;SDS011;42408;53.238;5.686;2023-03-01T14:52:00;17.20;;;11.60;;
56511;SDS011;42408;53.238;5.686;2023-03-01T14:57:15;16.15;;;12.75;;
56511;SDS011;42408;53.238;5.686;2023-03-01T14:59:43;14.50;;;11.05;;
56511;SDS011;42408;53.238;5.686;2023-03-01T15:02:11;17.13;;;12.05;;
56511;SDS011;42408;53.238;5.686;2023-03-01T15:04:46;17.60;;;12.35;;
56511;SDS011;42408;53.238;5.686;2023-03-01T15:07:19;15.15;;;10.65;;
56511;SDS011;42408;53.238;5.686;2023-03-01T15:09:45;17.73;;;11.55;;
56511;SDS011;42408;53.238;5.686;2023-03-01T15:12:24;18.73;;;12.15;;
56511;SDS011;42408;53.238;5.686;2023-03-01T15:14:53;16.23;;;11.57;;
56511;SDS011;42408;53.238;5.686;2023-03-01T15:17:29;14.77;;;11.10;;
56511;SDS011;42408;53.238;5.686;2023-03-01T15:20:02;18.60;;;10.48;;
56511;SDS011;42408;53.238;5.686;2023-03-01T15:22:30;13.70;;;10.52;;
56511;SDS011;42408;53.238;5.686;2023-03-01T15:24:56;13.33;;;10.37;;
56511;SDS011;42408;53.238;5.686;2023-03-01T15:27:23;13.53;;;9.20;;
56511;SDS011;42408;53.238;5.686;2023-03-01T15:29:51;14.02;;;9.30;;
56511;SDS011;42408;53.238;5.686;2023-03-01T15:32:30;13.00;;;9.77;;
56511;SDS011;42408;53.238;5.686;2023-03-01T15:35:00;13.77;;;9.00;;
56511;SDS011;42408;53.238;5.686;2023-03-01T15:37:47;14.52;;;9.90;;
56511;SDS011;42408;53.238;5.686;2023-03-01T15:40:32;15.18;;;9.60;;
56511;SDS011;42408;53.238;5.686;2023-03-01T15:43:01;16.45;;;11.27;;
56511;SDS011;42408;53.238;5.686;2023-03-01T15:45:29;15.00;;;11.35;;
56511;SDS011;42408;53.238;5.686;2023-03-01T15:48:03;17.35;;;12.02;;
56511;SDS011;42408;53.238;5.686;2023-03-01T15:50:32;19.73;;;13.82;;
56511;SDS011;42408;53.238;5.686;2023-03-01T15:53:00;16.17;;;11.82;;
56511;SDS011;42408;53.238;5.686;2023-03-01T15:55:32;18.05;;;12.43;;
56511;SDS011;42408;53.238;5.686;2023-03-01T16:00:31;17.20;;;11.85;;
56511;SDS011;42408;53.238;5.686;2023-03-01T16:02:57;17.10;;;12.35;;
56511;SDS011;42408;53.238;5.686;2023-03-01T16:05:25;16.33;;;10.50;;
56511;SDS011;42408;53.238;5.686;2023-03-01T16:07:52;16.17;;;10.40;;
56511;SDS011;42408;53.238;5.686;2023-03-01T16:10:19;14.15;;;10.00;;
56511;SDS011;42408;53.238;5.686;2023-03-01T16:12:45;14.40;;;9.00;;
56511;SDS011;42408;53.238;5.686;2023-03-01T16:17:46;17.13;;;10.65;;
56511;SDS011;42408;53.238;5.686;2023-03-01T16:20:12;16.27;;;10.80;;
56511;SDS011;42408;53.238;5.686;2023-03-01T16:22:40;16.55;;;10.60;;
56511;SDS011;42408;53.238;5.686;2023-03-01T16:25:08;16.67;;;11.38;;
56511;SDS011;42408;53.238;5.686;2023-03-01T16:27:38;16.20;;;11.98;;
56511;SDS011;42408;53.238;5.686;2023-03-01T16:30:05;20.42;;;13.63;;
56511;SDS011;42408;53.238;5.686;2023-03-01T16:32:31;18.90;;;13.23;;
56511;SDS011;42408;53.238;5.686;2023-03-01T16:34:57;19.33;;;13.97;;
56511;SDS011;42408;53.238;5.686;2023-03-01T16:37:22;22.37;;;15.07;;
56511;SDS011;42408;53.238;5.686;2023-03-01T16:39:48;19.57;;;14.50;;
56511;SDS011;42408;53.238;5.686;2023-03-01T16:42:17;24.30;;;15.98;;
56511;SDS011;42408;53.238;5.686;2023-03-01T16:47:08;22.55;;;15.20;;
56511;SDS011;42408;53.238;5.686;2023-03-01T16:49:34;25.50;;;16.63;;
56511;SDS011;42408;53.238;5.686;2023-03-01T16:51:59;30.43;;;17.27;;
56511;SDS011;42408;53.238;5.686;2023-03-01T16:54:25;29.63;;;16.83;;
56511;SDS011;42408;53.238;5.686;2023-03-01T16:56:51;25.33;;;17.20;;
56511;SDS011;42408;53.238;5.686;2023-03-01T16:59:16;24.33;;;17.03;;
56511;SDS011;42408;53.238;5.686;2023-03-01T17:01:44;27.50;;;17.92;;
56511;SDS011;42408;53.238;5.686;2023-03-01T17:04:11;23.40;;;17.00;;
56511;SDS011;42408;53.238;5.686;2023-03-01T17:06:37;23.30;;;16.60;;
56511;SDS011;42408;53.238;5.686;2023-03-01T17:09:03;22.60;;;16.83;;
56511;SDS011;42408;53.238;5.686;2023-03-01T17:11:29;28.50;;;17.50;;
56511;SDS011;42408;53.238;5.686;2023-03-01T17:13:54;20.70;;;14.90;;
56511;SDS011;42408;53.238;5.686;2023-03-01T17:16:20;23.27;;;15.57;;
56511;SDS011;42408;53.238;5.686;2023-03-01T17:18:46;22.30;;;15.82;;
56511;SDS011;42408;53.238;5.686;2023-03-01T17:21:12;21.80;;;15.23;;
56511;SDS011;42408;53.238;5.686;2023-03-01T17:23:39;23.55;;;16.30;;